Terminal Aerodrome Forecast
Issued by NWS Shreveport, LA

Home | Current Version | Previous Version | Text Only | Print | Product List | Glossary On
Versions: 1 2 3 4 5 6 7 8 9 10 11 12
970
FTUS44 KSHV 301133
TAFMLU
TAF
KMLU 301133Z 3012/0112 VRB03KT P6SM FEW280
     FM301600 34006KT P6SM FEW280
     FM301800 34007KT P6SM SCT040 SCT280
     FM010000 34003KT P6SM FEW250=

USA.gov is the U.S. government's official web portal to all federal, state and local government web resources and services.